Time;durP1;ratioP1;P1;durP2;ratioP2;P2;SDS_P1;SDS_P2;PMS_P1;PMS_P2;Temp;Humidity;BMP_temperature;BMP_pressure;BME280_temperature;BME280_humidity;BME280_pressure;Samples;Min_cycle;Max_cycle;Signal;HPM_P1;HPM_P2
2023/07/28 00:02:06;;;;;;;45.92;18.27;;;17.80;99.90;;;;;;5033422;28;20042;-27
2023/07/28 00:04:35;;;;;;;39.55;18.63;;;17.80;99.90;;;;;;5033418;28;20042;-26
2023/07/28 00:07:00;;;;;;;45.03;19.58;;;17.70;99.90;;;;;;5015800;28;20046;-27
2023/07/28 00:09:26;;;;;;;42.03;18.58;;;17.70;99.90;;;;;;5033352;28;20510;-27
2023/07/28 00:11:52;;;;;;;37.30;16.17;;;17.80;99.90;;;;;;5034158;28;20045;-27
2023/07/28 00:14:18;;;;;;;28.15;13.98;;;17.70;99.90;;;;;;5033185;28;20041;-27
2023/07/28 00:16:43;;;;;;;43.03;18.60;;;17.80;99.90;;;;;;5033286;28;20139;-28
2023/07/28 00:19:09;;;;;;;45.05;16.50;;;17.70;99.90;;;;;;5033399;28;20104;-27
2023/07/28 00:21:35;;;;;;;32.70;14.88;;;17.80;99.90;;;;;;5036913;28;20041;-27
2023/07/28 00:24:00;;;;;;;51.00;19.67;;;17.80;99.90;;;;;;5038415;28;20387;-28
2023/07/28 00:26:26;;;;;;;39.50;17.05;;;17.70;99.90;;;;;;5036976;28;20041;-27
2023/07/28 00:28:52;;;;;;;39.72;18.08;;;17.70;99.90;;;;;;5035982;28;20057;-27
2023/07/28 00:31:17;;;;;;;40.40;18.63;;;17.70;99.90;;;;;;5036836;28;20559;-27
2023/07/28 00:33:43;;;;;;;44.10;20.50;;;17.70;99.90;;;;;;5035576;28;20144;-27
2023/07/28 00:36:09;;;;;;;43.33;17.75;;;17.80;99.90;;;;;;5036715;28;20095;-27
2023/07/28 00:38:34;;;;;;;40.78;18.00;;;17.70;99.90;;;;;;5036063;28;20083;-27
2023/07/28 00:41:00;;;;;;;40.50;17.27;;;17.70;99.90;;;;;;5036693;28;20488;-27
2023/07/28 00:43:27;;;;;;;31.95;16.10;;;17.80;99.90;;;;;;5036267;28;20124;-27
2023/07/28 00:45:53;;;;;;;34.65;17.23;;;17.60;99.90;;;;;;5035211;28;20477;-27
2023/07/28 00:48:20;;;;;;;39.92;18.20;;;17.70;99.90;;;;;;5037071;28;20060;-27
2023/07/28 00:50:47;;;;;;;32.35;16.23;;;17.60;99.90;;;;;;5035558;28;20129;-27
2023/07/28 00:53:14;;;;;;;42.95;20.25;;;17.70;99.90;;;;;;5035199;28;20103;-27
2023/07/28 00:55:40;;;;;;;48.88;19.85;;;17.70;99.90;;;;;;5036403;28;20132;-26
2023/07/28 00:58:06;;;;;;;40.38;17.02;;;17.70;99.90;;;;;;5037194;28;20041;-26
2023/07/28 01:00:32;;;;;;;48.63;21.27;;;17.70;99.90;;;;;;5036874;28;20042;-27
2023/07/28 01:02:58;;;;;;;37.85;17.67;;;17.70;99.90;;;;;;5034801;28;20049;-27
2023/07/28 01:05:40;;;;;;;40.50;18.20;;;17.60;99.90;;;;;;5036276;28;20049;-27
2023/07/28 01:08:16;;;;;;;49.38;18.83;;;17.70;99.90;;;;;;5036570;28;20049;-27
2023/07/28 01:10:43;;;;;;;67.60;22.83;;;17.80;99.90;;;;;;5035279;28;20076;-26
2023/07/28 01:13:09;;;;;;;35.42;16.13;;;17.70;99.90;;;;;;5036086;28;20545;-26
2023/07/28 01:15:34;;;;;;;55.22;21.52;;;17.70;99.90;;;;;;5034839;28;20056;-26
2023/07/28 01:18:00;;;;;;;47.65;18.27;;;17.70;99.90;;;;;;5035432;28;20107;-27
2023/07/28 01:20:31;;;;;;;51.40;20.95;;;17.60;99.90;;;;;;5036841;28;20052;-27
2023/07/28 01:23:13;;;;;;;51.08;22.50;;;17.60;99.90;;;;;;5036566;28;20049;-26
2023/07/28 01:26:16;;;;;;;43.85;19.73;;;17.70;99.90;;;;;;5018519;28;20084;-26
2023/07/28 01:28:44;;;;;;;73.63;24.35;;;17.60;99.90;;;;;;5036249;28;20134;-26
2023/07/28 01:31:10;;;;;;;52.95;21.42;;;17.50;99.90;;;;;;5035810;28;20511;-26
2023/07/28 01:33:36;;;;;;;43.03;18.95;;;17.80;99.90;;;;;;5018121;28;20053;-26
2023/07/28 01:36:02;;;;;;;41.08;17.27;;;17.70;99.90;;;;;;5035668;28;20546;-25
2023/07/28 01:38:28;;;;;;;39.60;16.70;;;17.70;99.90;;;;;;5035675;28;20037;-25
2023/07/28 01:40:54;;;;;;;37.63;17.17;;;17.60;99.90;;;;;;5036205;28;20484;-25
2023/07/28 01:43:20;;;;;;;65.35;24.08;;;17.60;99.90;;;;;;5035597;28;20056;-25
2023/07/28 01:45:46;;;;;;;59.95;22.15;;;17.60;99.90;;;;;;5035828;28;20493;-25
2023/07/28 01:48:11;;;;;;;57.75;22.27;;;17.60;99.90;;;;;;5035465;28;20119;-25
2023/07/28 01:50:37;;;;;;;48.17;18.55;;;17.80;99.90;;;;;;5034497;28;20060;-25
2023/07/28 01:53:05;;;;;;;49.75;20.55;;;17.60;99.90;;;;;;5018210;28;20542;-24
2023/07/28 01:55:31;;;;;;;40.85;18.60;;;17.50;99.90;;;;;;5035252;28;20037;-24
2023/07/28 01:58:02;;;;;;;40.03;16.70;;;17.70;99.90;;;;;;5034195;28;20056;-24
2023/07/28 02:00:27;;;;;;;38.13;17.90;;;17.60;99.90;;;;;;5035293;28;20575;-24
2023/07/28 02:02:54;;;;;;;50.65;20.42;;;17.70;99.90;;;;;;5035507;28;20128;-24
2023/07/28 02:05:20;;;;;;;45.15;19.63;;;17.60;99.90;;;;;;5035947;28;20100;-24
2023/07/28 02:07:45;;;;;;;48.88;20.65;;;17.50;99.90;;;;;;5035646;28;20468;-24
2023/07/28 02:10:11;;;;;;;47.28;19.80;;;17.70;99.90;;;;;;5035917;28;20045;-24
2023/07/28 02:12:38;;;;;;;51.00;19.30;;;17.70;99.90;;;;;;5035023;28;20045;-24
2023/07/28 02:15:05;;;;;;;39.78;18.52;;;17.60;99.90;;;;;;5034909;28;20090;-24
2023/07/28 02:17:31;;;;;;;46.97;19.95;;;17.80;99.90;;;;;;5033951;28;20053;-24
2023/07/28 02:19:57;;;;;;;49.92;19.85;;;17.70;99.90;;;;;;5033723;28;20069;-24
2023/07/28 02:22:22;;;;;;;51.45;21.17;;;17.70;99.90;;;;;;5035673;28;20138;-24
2023/07/28 02:24:48;;;;;;;51.03;21.27;;;17.60;99.90;;;;;;5034806;28;20501;-24
2023/07/28 02:27:14;;;;;;;53.63;21.80;;;17.70;99.90;;;;;;5035536;28;20053;-24
2023/07/28 02:29:39;;;;;;;47.03;20.15;;;17.70;99.90;;;;;;5033391;28;20076;-24
2023/07/28 02:32:06;;;;;;;44.70;19.70;;;17.60;99.90;;;;;;5033381;28;20042;-24
2023/07/28 02:34:31;;;;;;;51.33;23.33;;;17.60;99.90;;;;;;5033320;28;20467;-24
2023/07/28 02:36:57;;;;;;;61.67;23.45;;;17.80;99.90;;;;;;5033374;28;20507;-25
2023/07/28 02:39:24;;;;;;;51.60;20.38;;;17.60;99.90;;;;;;5034501;28;20050;-24
2023/07/28 02:41:50;;;;;;;52.35;21.50;;;17.70;99.90;;;;;;5034146;28;20132;-25
2023/07/28 02:44:16;;;;;;;47.40;21.35;;;17.70;99.90;;;;;;5033586;28;20454;-25
2023/07/28 02:46:41;;;;;;;55.67;23.13;;;17.60;99.90;;;;;;5034475;28;20538;-25
2023/07/28 02:49:07;;;;;;;49.58;21.95;;;17.70;99.90;;;;;;5034044;28;20053;-25
2023/07/28 02:51:35;;;;;;;41.58;18.95;;;17.70;99.90;;;;;;5034850;28;20052;-25
2023/07/28 02:54:01;;;;;;;49.90;20.05;;;17.80;99.90;;;;;;5034413;28;20041;-25
2023/07/28 02:56:27;;;;;;;51.70;20.20;;;17.70;99.90;;;;;;5034755;28;20072;-25
2023/07/28 02:58:53;;;;;;;46.85;21.20;;;17.70;99.90;;;;;;5033229;28;20191;-25
2023/07/28 03:01:18;;;;;;;47.05;20.30;;;17.60;99.90;;;;;;5034199;28;20049;-25
2023/07/28 03:03:47;;;;;;;45.60;20.50;;;17.70;99.90;;;;;;5034105;28;20392;-25
2023/07/28 03:06:13;;;;;;;46.53;20.08;;;17.60;99.90;;;;;;5034047;28;20041;-25
2023/07/28 03:08:38;;;;;;;72.13;23.85;;;17.70;99.90;;;;;;5034071;28;20052;-25
2023/07/28 03:11:04;;;;;;;52.22;20.73;;;17.70;99.90;;;;;;5034030;28;20038;-25
2023/07/28 03:13:30;;;;;;;53.25;21.02;;;17.50;99.90;;;;;;5032699;28;20402;-25
2023/07/28 03:15:55;;;;;;;35.08;17.48;;;17.60;99.90;;;;;;5017083;28;20099;-26
2023/07/28 03:18:21;;;;;;;53.67;22.52;;;17.60;99.90;;;;;;5034489;28;20407;-25
2023/07/28 03:20:47;;;;;;;63.95;21.88;;;17.70;99.90;;;;;;5032680;28;20049;-25
2023/07/28 03:23:13;;;;;;;46.08;19.83;;;17.70;99.90;;;;;;5016716;28;20053;-25
2023/07/28 03:25:39;;;;;;;36.80;18.77;;;17.70;99.90;;;;;;5032862;28;20052;-25
2023/07/28 03:28:05;;;;;;;43.10;18.98;;;17.60;99.90;;;;;;5034107;28;20049;-26
2023/07/28 03:30:31;;;;;;;33.70;16.52;;;17.70;99.90;;;;;;5033775;28;20049;-26
2023/07/28 03:32:57;;;;;;;37.97;16.55;;;17.60;99.90;;;;;;5033695;28;20484;-26
2023/07/28 03:35:22;;;;;;;35.17;15.57;;;17.70;99.90;;;;;;5033624;28;20040;-26
2023/07/28 03:37:48;;;;;;;37.78;16.50;;;17.70;99.90;;;;;;5033967;28;20499;-26
2023/07/28 03:40:14;;;;;;;51.25;17.90;;;17.60;99.90;;;;;;5034206;28;20049;-25
2023/07/28 03:42:39;;;;;;;34.67;15.57;;;17.70;99.90;;;;;;5033575;28;20041;-25
2023/07/28 03:45:08;;;;;;;39.53;15.82;;;17.60;99.90;;;;;;5032361;28;20068;-26
2023/07/28 03:47:34;;;;;;;33.22;14.98;;;17.60;99.90;;;;;;5032412;28;20099;-26
2023/07/28 03:49:59;;;;;;;39.55;16.45;;;17.60;99.90;;;;;;5033551;28;20046;-26
2023/07/28 03:52:25;;;;;;;41.15;15.63;;;17.70;99.90;;;;;;5033190;28;20053;-26
2023/07/28 03:54:51;;;;;;;30.27;13.38;;;17.70;99.90;;;;;;5035518;28;20130;-26
2023/07/28 03:57:16;;;;;;;34.85;15.27;;;17.60;99.90;;;;;;5037273;28;20400;-27
2023/07/28 03:59:42;;;;;;;35.42;15.40;;;17.70;99.90;;;;;;5037511;28;20134;-26
2023/07/28 04:02:08;;;;;;;39.20;16.52;;;17.80;99.90;;;;;;5037437;28;20045;-25
2023/07/28 04:04:35;;;;;;;44.42;18.83;;;17.70;99.90;;;;;;5036204;28;20092;-26
2023/07/28 04:07:00;;;;;;;39.90;18.10;;;17.70;99.90;;;;;;5037352;28;20115;-26
2023/07/28 04:09:27;;;;;;;44.05;18.85;;;17.60;99.90;;;;;;5037052;28;20447;-26
2023/07/28 04:11:53;;;;;;;33.70;16.48;;;17.80;99.90;;;;;;5037559;28;20092;-26
2023/07/28 04:14:18;;;;;;;36.05;16.50;;;17.70;99.90;;;;;;5037208;28;20499;-26
2023/07/28 04:16:44;;;;;;;34.72;17.98;;;17.80;99.90;;;;;;5037465;28;20099;-26
2023/07/28 04:19:10;;;;;;;32.42;16.40;;;17.70;99.90;;;;;;5037136;28;20127;-26
2023/07/28 04:21:39;;;;;;;31.55;17.45;;;17.80;99.90;;;;;;5037093;28;20119;-26
2023/07/28 04:24:06;;;;;;;23.80;13.40;;;17.70;99.90;;;;;;5037031;28;20487;-26
2023/07/28 04:26:32;;;;;;;23.38;13.02;;;17.80;99.90;;;;;;5036856;28;20041;-26
2023/07/28 04:28:58;;;;;;;31.17;14.20;;;17.80;99.90;;;;;;5036583;28;20411;-26
2023/07/28 04:31:23;;;;;;;35.20;15.57;;;17.70;99.90;;;;;;5037198;28;20081;-26
2023/07/28 04:33:49;;;;;;;25.20;12.32;;;17.70;99.90;;;;;;5036895;28;20053;-26
2023/07/28 04:36:15;;;;;;;25.63;13.07;;;17.70;99.90;;;;;;5036792;28;20048;-26
2023/07/28 04:38:40;;;;;;;28.92;12.57;;;17.80;99.90;;;;;;5036862;28;20137;-26
2023/07/28 04:41:06;;;;;;;24.73;13.52;;;17.80;99.90;;;;;;5037110;28;20361;-26
2023/07/28 04:43:32;;;;;;;23.42;12.18;;;17.80;99.90;;;;;;5036722;28;20132;-26
2023/07/28 04:45:57;;;;;;;19.77;9.98;;;17.80;99.90;;;;;;5035528;28;20061;-26
2023/07/28 04:48:23;;;;;;;23.20;12.23;;;17.70;99.90;;;;;;5035394;28;20448;-26
2023/07/28 04:50:49;;;;;;;34.60;13.93;;;17.80;99.90;;;;;;5036272;28;20053;-27
2023/07/28 04:53:14;;;;;;;15.55;10.63;;;17.80;99.90;;;;;;5018787;28;20131;-26
2023/07/28 04:55:40;;;;;;;22.08;11.45;;;17.80;99.90;;;;;;5036124;28;20046;-26
2023/07/28 04:58:06;;;;;;;18.58;11.13;;;17.80;99.90;;;;;;5035299;28;20053;-26
2023/07/28 05:00:31;;;;;;;19.02;11.10;;;17.70;99.90;;;;;;5035507;28;20045;-26
2023/07/28 05:02:57;;;;;;;25.42;12.75;;;17.70;99.90;;;;;;5036462;28;20049;-26
2023/07/28 05:05:23;;;;;;;20.95;12.15;;;17.70;99.90;;;;;;5034789;28;20065;-26
2023/07/28 05:07:48;;;;;;;20.88;10.75;;;17.70;99.90;;;;;;5036240;28;20049;-26
2023/07/28 05:10:14;;;;;;;30.50;12.57;;;17.80;99.90;;;;;;5035058;28;20049;-27
2023/07/28 05:12:40;;;;;;;23.73;12.18;;;17.80;99.90;;;;;;5035271;28;20053;-26
2023/07/28 05:15:10;;;;;;;23.08;11.35;;;17.80;99.90;;;;;;5036033;28;20369;-26
2023/07/28 05:17:36;;;;;;;23.70;11.63;;;17.80;99.90;;;;;;5036695;28;20057;-26
2023/07/28 05:20:03;;;;;;;26.30;12.48;;;17.80;99.90;;;;;;5036002;28;20053;-27
2023/07/28 05:22:28;;;;;;;25.33;12.10;;;17.80;99.90;;;;;;5035948;28;20080;-26
2023/07/28 05:24:54;;;;;;;25.83;11.90;;;17.80;99.90;;;;;;5036808;28;20038;-26
2023/07/28 05:27:20;;;;;;;21.08;10.45;;;17.80;99.90;;;;;;5034598;28;20475;-26
2023/07/28 05:29:46;;;;;;;23.85;11.15;;;17.90;99.90;;;;;;5035740;28;20088;-27
2023/07/28 05:32:11;;;;;;;20.15;10.32;;;17.90;99.90;;;;;;5035841;28;20484;-26
2023/07/28 05:34:37;;;;;;;25.25;9.57;;;17.90;99.90;;;;;;5035641;28;20049;-26
2023/07/28 05:37:03;;;;;;;16.77;10.70;;;17.90;99.90;;;;;;5035981;28;20045;-27
2023/07/28 05:39:29;;;;;;;15.38;9.75;;;18.00;99.90;;;;;;5034512;28;20045;-26
2023/07/28 05:41:55;;;;;;;21.48;10.18;;;18.00;99.90;;;;;;5034483;28;20132;-26
2023/07/28 05:44:20;;;;;;;19.92;10.52;;;18.00;99.90;;;;;;5035466;28;20112;-27
2023/07/28 05:46:49;;;;;;;21.30;9.07;;;18.00;99.90;;;;;;5035631;28;20064;-26
2023/07/28 05:49:15;;;;;;;20.67;10.75;;;18.00;99.90;;;;;;5033968;28;20053;-28
2023/07/28 05:51:41;;;;;;;20.45;10.50;;;18.00;99.90;;;;;;5035710;28;20045;-27
2023/07/28 05:54:07;;;;;;;12.57;9.05;;;18.00;99.90;;;;;;5035862;28;20045;-27
2023/07/28 05:56:32;;;;;;;16.10;10.68;;;18.10;99.90;;;;;;5035642;28;20049;-27
2023/07/28 05:58:58;;;;;;;16.20;10.13;;;18.10;99.90;;;;;;5035319;28;20049;-26
2023/07/28 06:01:26;;;;;;;17.35;11.30;;;18.10;99.90;;;;;;5034334;28;20072;-27
2023/07/28 06:03:55;;;;;;;16.80;12.30;;;18.20;99.90;;;;;;5035190;28;20506;-27
2023/07/28 06:06:21;;;;;;;19.13;11.00;;;18.10;99.90;;;;;;5035183;28;20068;-28
2023/07/28 06:08:47;;;;;;;14.38;9.68;;;18.20;99.90;;;;;;5035964;28;20388;-27
2023/07/28 06:11:13;;;;;;;13.50;10.13;;;18.10;99.90;;;;;;5034758;28;20049;-27
2023/07/28 06:13:39;;;;;;;14.45;10.80;;;18.10;99.90;;;;;;5017584;28;20045;-27
2023/07/28 06:16:04;;;;;;;16.38;12.70;;;18.00;99.90;;;;;;5033944;28;20049;-27
2023/07/28 06:18:30;;;;;;;15.90;12.07;;;18.00;99.90;;;;;;5033956;28;20041;-27
2023/07/28 06:20:56;;;;;;;16.10;13.00;;;18.70;99.90;;;;;;5034870;28;20042;-27
2023/07/28 06:23:22;;;;;;;17.30;11.80;;;18.70;99.90;;;;;;5034819;28;20128;-27
2023/07/28 06:25:47;;;;;;;17.10;12.55;;;18.70;99.90;;;;;;5034810;28;20048;-27
2023/07/28 06:28:16;;;;;;;13.23;11.40;;;18.70;99.90;;;;;;5034649;28;20063;-27
2023/07/28 06:30:42;;;;;;;16.80;14.35;;;18.70;99.90;;;;;;5034731;28;20049;-27
2023/07/28 06:33:08;;;;;;;20.02;11.35;;;18.80;99.90;;;;;;5035193;28;20495;-27
2023/07/28 06:35:34;;;;;;;15.23;10.77;;;18.80;99.90;;;;;;5034505;28;20124;-28
2023/07/28 06:38:02;;;;;;;14.85;11.63;;;18.80;99.90;;;;;;5034806;28;20045;-28
2023/07/28 06:40:28;;;;;;;14.10;12.13;;;18.80;99.90;;;;;;5034473;28;20060;-29
2023/07/28 06:42:53;;;;;;;11.73;9.93;;;18.80;99.90;;;;;;5034461;28;20045;-28
2023/07/28 06:45:20;;;;;;;20.27;13.30;;;18.80;99.90;;;;;;5034045;28;20061;-27
2023/07/28 06:47:46;;;;;;;13.35;10.52;;;18.70;99.90;;;;;;5033027;28;20057;-28
2023/07/28 06:50:12;;;;;;;14.43;11.88;;;18.60;99.90;;;;;;5034281;28;20133;-28
2023/07/28 06:52:37;;;;;;;12.95;9.93;;;18.80;99.90;;;;;;5034329;28;20462;-28
2023/07/28 06:55:03;;;;;;;11.57;10.10;;;18.80;99.90;;;;;;5032977;28;20045;-29
2023/07/28 06:57:30;;;;;;;13.32;10.77;;;19.00;99.90;;;;;;5034164;28;20470;-29
2023/07/28 06:59:56;;;;;;;12.88;11.18;;;19.10;99.90;;;;;;5034235;28;20049;-28
2023/07/28 07:02:22;;;;;;;13.50;9.20;;;19.30;99.90;;;;;;5034954;28;20084;-28
2023/07/28 07:04:48;;;;;;;10.88;7.80;;;19.40;99.90;;;;;;5033021;28;20053;-29
2023/07/28 07:07:14;;;;;;;10.88;7.28;;;19.40;99.90;;;;;;5034900;28;20179;-29
2023/07/28 07:09:40;;;;;;;7.38;5.88;;;19.50;99.90;;;;;;5033025;28;20391;-29
2023/07/28 07:12:08;;;;;;;8.88;6.28;;;19.40;99.90;;;;;;5016452;28;20052;-30
2023/07/28 07:14:34;;;;;;;11.80;7.20;;;19.40;99.90;;;;;;5034444;28;20368;-29
2023/07/28 07:17:00;;;;;;;6.85;6.15;;;19.50;99.90;;;;;;5032759;28;20056;-29
2023/07/28 07:19:28;;;;;;;8.05;6.75;;;19.60;99.90;;;;;;5017263;28;20045;-30
2023/07/28 07:21:54;;;;;;;8.40;6.18;;;19.70;99.90;;;;;;5033871;28;20076;-30
2023/07/28 07:24:21;;;;;;;8.65;6.90;;;19.60;99.90;;;;;;5033876;28;20053;-30
2023/07/28 07:26:46;;;;;;;8.10;7.30;;;19.50;99.90;;;;;;5016777;28;20056;-30
2023/07/28 07:29:12;;;;;;;7.85;6.72;;;19.50;99.90;;;;;;5033427;28;20120;-30
2023/07/28 07:31:38;;;;;;;10.23;6.82;;;19.40;99.90;;;;;;5034277;28;20053;-31
2023/07/28 07:34:04;;;;;;;5.97;5.13;;;19.40;99.90;;;;;;5032578;28;20387;-31
2023/07/28 07:36:31;;;;;;;9.50;6.60;;;19.50;99.90;;;;;;5033605;28;20128;-31
2023/07/28 07:38:57;;;;;;;8.85;7.63;;;19.60;99.90;;;;;;5033678;28;20083;-31
2023/07/28 07:41:23;;;;;;;9.80;8.80;;;19.60;99.90;;;;;;5032426;28;20507;-30
2023/07/28 07:43:50;;;;;;;8.32;7.53;;;19.50;99.90;;;;;;5032436;28;20080;-32
2023/07/28 07:46:16;;;;;;;7.97;6.65;;;19.60;99.90;;;;;;5033991;28;20128;-32
2023/07/28 07:48:42;;;;;;;8.27;6.18;;;19.60;99.90;;;;;;5033595;28;20058;-31
2023/07/28 07:51:08;;;;;;;5.93;5.35;;;19.70;99.90;;;;;;5033478;28;20103;-31
2023/07/28 07:53:36;;;;;;;6.90;6.20;;;19.60;99.90;;;;;;5032543;28;20058;-33
2023/07/28 07:56:05;;;;;;;6.47;5.43;;;19.60;99.90;;;;;;5033962;28;20045;-31
2023/07/28 07:58:32;;;;;;;8.13;6.10;;;19.60;99.90;;;;;;5033465;28;20419;-32
2023/07/28 08:00:58;;;;;;;7.78;6.95;;;19.60;99.90;;;;;;5033513;28;20056;-32
2023/07/28 08:03:24;;;;;;;7.93;6.50;;;19.60;99.90;;;;;;5033425;28;20046;-32
2023/07/28 08:05:50;;;;;;;9.93;7.90;;;19.60;99.90;;;;;;5033685;28;20121;-33
2023/07/28 08:08:17;;;;;;;10.10;7.75;;;19.60;99.90;;;;;;5033435;28;20132;-32
2023/07/28 08:10:43;;;;;;;10.52;8.23;;;19.60;99.90;;;;;;5032409;28;20061;-32
2023/07/28 08:13:09;;;;;;;9.02;8.13;;;19.50;99.90;;;;;;5033339;28;20045;-32
2023/07/28 08:15:35;;;;;;;10.70;9.68;;;19.50;99.90;;;;;;5032972;28;20092;-32
2023/07/28 08:18:00;;;;;;;9.77;8.40;;;19.50;99.90;;;;;;5033294;28;20050;-32
2023/07/28 08:20:26;;;;;;;11.80;9.07;;;19.50;99.90;;;;;;5033297;28;20041;-33
2023/07/28 08:22:52;;;;;;;11.70;9.55;;;19.60;99.90;;;;;;5015852;28;20438;-33
2023/07/28 08:25:18;;;;;;;10.65;9.48;;;19.80;99.90;;;;;;5034184;28;20041;-33
2023/07/28 08:27:44;;;;;;;10.50;9.48;;;20.00;99.90;;;;;;5033180;28;20483;-32
2023/07/28 08:30:10;;;;;;;13.07;11.43;;;20.20;99.90;;;;;;5032892;28;20128;-33
2023/07/28 08:32:36;;;;;;;9.52;8.50;;;20.20;99.90;;;;;;5032023;28;20115;-33
2023/07/28 08:35:03;;;;;;;11.15;10.15;;;20.40;99.90;;;;;;5033365;28;20476;-33
2023/07/28 08:37:29;;;;;;;10.15;9.05;;;20.50;99.90;;;;;;5033709;28;20057;-34
2023/07/28 08:39:55;;;;;;;9.73;8.68;;;20.60;99.90;;;;;;5033113;28;20056;-34
2023/07/28 08:42:22;;;;;;;8.63;7.82;;;20.70;99.90;;;;;;5036508;28;20128;-35
2023/07/28 08:44:48;;;;;;;8.52;7.60;;;20.70;99.90;;;;;;5036455;28;20057;-35
2023/07/28 08:47:14;;;;;;;8.65;7.05;;;20.60;99.90;;;;;;5037226;28;20383;-38
2023/07/28 08:49:40;;;;;;;6.97;5.47;;;20.50;99.90;;;;;;5036667;28;20046;-40
2023/07/28 08:52:06;;;;;;;8.20;6.53;;;20.40;99.90;;;;;;5035142;28;20083;-39
2023/07/28 08:54:32;;;;;;;7.28;6.55;;;20.30;99.90;;;;;;5035005;28;20149;-39
2023/07/28 08:56:58;;;;;;;6.95;6.15;;;20.20;99.90;;;;;;5036420;28;20085;-40
2023/07/28 08:59:26;;;;;;;8.93;7.40;;;20.20;99.90;;;;;;5035171;28;20057;-40
2023/07/28 09:01:53;;;;;;;8.20;7.20;;;20.30;99.90;;;;;;5035343;28;20049;-41
2023/07/28 09:04:20;;;;;;;8.27;7.30;;;20.30;99.90;;;;;;5036251;28;20046;-41
2023/07/28 09:06:47;;;;;;;6.10;5.50;;;20.30;99.90;;;;;;5035085;28;20138;-41
2023/07/28 09:09:18;;;;;;;5.68;5.18;;;20.30;99.90;;;;;;5036158;28;20052;-42
2023/07/28 09:11:49;;;;;;;6.43;5.07;;;20.20;99.90;;;;;;5018651;28;20136;-42
2023/07/28 09:14:16;;;;;;;6.47;5.47;;;20.50;99.90;;;;;;5034831;28;20195;-42
2023/07/28 09:16:43;;;;;;;6.07;5.47;;;20.60;99.90;;;;;;5036008;28;20041;-41
2023/07/28 09:19:09;;;;;;;7.10;6.40;;;20.60;99.90;;;;;;5035518;28;20091;-42
2023/07/28 09:21:37;;;;;;;4.90;4.43;;;20.70;99.90;;;;;;5036043;28;20141;-42
2023/07/28 09:24:08;;;;;;;6.65;6.05;;;20.80;99.90;;;;;;5036228;28;20041;-42
2023/07/28 09:26:41;;;;;;;6.95;4.97;;;20.70;99.90;;;;;;5035963;28;20052;-42
2023/07/28 09:29:15;;;;;;;5.72;5.20;;;20.50;99.90;;;;;;5036714;28;20053;-42
2023/07/28 09:31:41;;;;;;;5.80;5.30;;;20.40;99.90;;;;;;5035898;28;20054;-42
2023/07/28 09:34:08;;;;;;;6.75;5.72;;;20.50;99.90;;;;;;5035848;28;20045;-43
2023/07/28 09:36:35;;;;;;;5.00;4.50;;;20.60;99.90;;;;;;5035651;28;20100;-42
2023/07/28 09:39:03;;;;;;;3.90;3.53;;;21.30;99.90;;;;;;5034524;28;20476;-41
2023/07/28 09:41:30;;;;;;;4.32;3.75;;;21.80;99.90;;;;;;5018714;28;20045;-41
2023/07/28 09:43:57;;;;;;;5.20;3.83;;;21.90;99.90;;;;;;5034425;28;20064;-43
2023/07/28 09:46:28;;;;;;;5.88;2.75;;;21.80;99.90;;;;;;5035595;28;20049;-44
2023/07/28 09:48:58;;;;;;;2.83;2.28;;;21.60;84.60;;;;;;5036169;28;20049;-42
2023/07/28 09:51:30;;;;;;;2.53;1.83;;;22.40;1.00;;;;;;5035993;28;20041;-44
2023/07/28 09:54:03;;;;;;;5.32;2.75;;;22.60;1.00;;;;;;5034865;28;20139;-43
2023/07/28 09:56:29;;;;;;;5.00;2.28;;;22.60;99.90;;;;;;5035335;28;20472;-43
2023/07/28 09:58:57;;;;;;;4.43;3.38;;;22.20;99.90;;;;;;5034158;28;20049;-44
2023/07/28 10:01:23;;;;;;;6.28;3.50;;;21.90;1.00;;;;;;5035352;28;20487;-45
2023/07/28 10:03:50;;;;;;;4.35;3.95;;;22.40;1.00;;;;;;5034321;28;20057;-46
2023/07/28 10:06:17;;;;;;;5.28;4.57;;;23.10;99.90;;;;;;5035498;28;20051;-44
2023/07/28 10:08:44;;;;;;;5.05;2.90;;;23.30;99.90;;;;;;5035433;28;20424;-44
2023/07/28 10:11:12;;;;;;;3.80;3.47;;;23.00;99.90;;;;;;5034202;28;20451;-45
2023/07/28 10:13:42;;;;;;;3.30;3.00;;;22.30;99.90;;;;;;5034129;28;20165;-45
2023/07/28 10:16:14;;;;;;;4.18;3.47;;;21.70;1.00;;;;;;5033743;28;20051;-45
2023/07/28 10:18:40;;;;;;;9.63;5.45;;;21.40;1.00;;;;;;5034403;28;20046;-49
2023/07/28 10:21:15;;;;;;;8.57;5.03;;;21.80;90.70;;;;;;5033974;28;20057;-39
2023/07/28 10:23:41;;;;;;;4.95;3.85;;;22.80;44.70;;;;;;5017750;28;20061;-39
2023/07/28 10:26:07;;;;;;;4.65;3.42;;;23.10;1.00;;;;;;5034890;28;20511;-36
2023/07/28 10:28:38;;;;;;;4.60;4.20;;;22.90;99.90;;;;;;5035001;28;20088;-37
2023/07/28 10:31:06;;;;;;;5.65;5.10;;;22.50;1.00;;;;;;5034484;28;20415;-38
2023/07/28 10:33:38;;;;;;;6.88;4.25;;;22.50;1.00;;;;;;5034667;28;20049;-37
2023/07/28 10:36:16;;;;;;;8.65;3.78;;;22.30;1.00;;;;;;5033376;28;20054;-36
2023/07/28 10:38:43;;;;;;;4.05;3.35;;;22.00;1.00;;;;;;5033921;28;20056;-37
2023/07/28 10:41:17;;;;;;;3.35;2.47;;;21.80;1.00;;;;;;5000855;28;20501;-37
2023/07/28 10:43:44;;;;;;;2.60;2.13;;;21.80;1.00;;;;;;5033433;28;20045;-36
2023/07/28 10:46:14;;;;;;;3.15;1.73;;;21.90;1.00;;;;;;5032797;28;20049;-36
2023/07/28 10:48:47;;;;;;;4.40;2.92;;;22.10;1.00;;;;;;5034280;28;20057;-36
2023/07/28 10:51:25;;;;;;;4.00;2.88;;;22.10;1.00;;;;;;5034357;28;20103;-36
2023/07/28 10:53:52;;;;;;;6.05;3.28;;;22.20;1.00;;;;;;5034275;28;20050;-37
2023/07/28 10:56:18;;;;;;;2.90;2.70;;;22.60;1.00;;;;;;5016489;28;20041;-36
2023/07/28 10:58:44;;;;;;;6.50;2.42;;;23.20;99.90;;;;;;5017528;28;20053;-36
2023/07/28 11:01:10;;;;;;;3.70;2.13;;;23.40;46.90;;;;;;5034080;28;20048;-36
2023/07/28 11:03:36;;;;;;;3.25;2.30;;;23.40;99.90;;;;;;5033254;28;20045;-36
2023/07/28 11:06:03;;;;;;;5.75;2.13;;;23.40;99.90;;;;;;5033586;28;20049;-36
2023/07/28 11:08:29;;;;;;;3.15;2.30;;;23.10;99.90;;;;;;5033949;28;20041;-36
2023/07/28 11:10:55;;;;;;;4.53;2.55;;;22.70;99.90;;;;;;5032760;28;20053;-37
2023/07/28 11:13:22;;;;;;;3.03;2.28;;;22.60;99.90;;;;;;5033829;28;20084;-37
2023/07/28 11:15:48;;;;;;;3.03;1.73;;;23.00;99.90;;;;;;5034598;28;20049;-36
2023/07/28 11:18:16;;;;;;;2.30;2.10;;;23.40;99.90;;;;;;5032767;28;20429;-36
2023/07/28 11:20:42;;;;;;;2.65;1.45;;;23.40;99.90;;;;;;5033922;28;20487;-36
2023/07/28 11:23:08;;;;;;;5.10;2.25;;;23.50;99.90;;;;;;5034703;28;20048;-36
2023/07/28 11:25:35;;;;;;;2.63;1.92;;;23.90;57.30;;;;;;5033861;28;20037;-35
2023/07/28 11:28:05;;;;;;;2.35;1.50;;;23.40;1.00;;;;;;5033993;28;20088;-36
2023/07/28 11:30:31;;;;;;;3.78;1.73;;;23.40;99.90;;;;;;5016747;28;20053;-36
2023/07/28 11:32:58;;;;;;;2.38;1.63;;;23.60;99.90;;;;;;5033776;28;20447;-35
2023/07/28 11:35:23;;;;;;;5.10;1.85;;;24.10;99.90;;;;;;5016463;28;20051;-35
2023/07/28 11:37:52;;;;;;;4.20;1.98;;;23.70;1.00;;;;;;5034258;28;20051;-35
2023/07/28 11:40:20;;;;;;;2.25;1.33;;;23.40;1.00;;;;;;5034521;28;20072;-34
2023/07/28 11:42:49;;;;;;;2.53;1.80;;;23.30;26.40;;;;;;5016230;28;20076;-34
2023/07/28 11:45:18;;;;;;;3.33;1.23;;;23.50;1.00;;;;;;5033591;28;20136;-34
2023/07/28 11:47:57;;;;;;;3.15;1.60;;;24.00;5.90;;;;;;5033595;28;20060;-34
2023/07/28 11:50:34;;;;;;;2.13;1.20;;;24.00;1.00;;;;;;5033884;28;20476;-34
2023/07/28 11:53:00;;;;;;;1.55;1.40;;;24.70;1.00;;;;;;5016468;28;20505;-33
2023/07/28 11:55:26;;;;;;;2.55;0.73;;;24.70;99.90;;;;;;5033509;28;20063;-34
2023/07/28 11:57:53;;;;;;;1.65;0.90;;;24.70;1.00;;;;;;5033193;28;20046;-33
2023/07/28 12:00:26;;;;;;;2.03;1.10;;;25.00;99.90;;;;;;5034102;28;20479;-33
2023/07/28 12:03:10;;;;;;;2.92;1.00;;;25.10;22.90;;;;;;5033823;28;20095;-33
2023/07/28 12:05:38;;;;;;;2.25;1.30;;;25.10;99.90;;;;;;5033407;28;20046;-33
2023/07/28 12:08:04;;;;;;;1.17;0.70;;;25.20;99.90;;;;;;5032541;28;20570;-33
2023/07/28 12:10:31;;;;;;;1.92;1.02;;;24.90;99.90;;;;;;5033451;28;20128;-32
2023/07/28 12:13:03;;;;;;;1.00;0.68;;;24.10;99.90;;;;;;5033339;28;20045;-32
2023/07/28 12:15:31;;;;;;;2.15;1.08;;;23.50;1.00;;;;;;5032886;28;20056;-32
2023/07/28 12:18:11;;;;;;;2.85;0.77;;;23.10;99.90;;;;;;5037222;28;20045;-32
2023/07/28 12:20:47;;;;;;;1.65;1.27;;;23.00;99.90;;;;;;5037189;28;20129;-32
2023/07/28 12:23:19;;;;;;;1.48;0.88;;;23.60;99.90;;;;;;5037087;28;20042;-32
2023/07/28 12:25:45;;;;;;;2.40;1.38;;;23.90;99.90;;;;;;5019442;28;20045;-34
2023/07/28 12:28:11;;;;;;;2.58;1.63;;;23.80;99.90;;;;;;5037034;28;20164;-38
2023/07/28 12:30:37;;;;;;;3.60;1.08;;;23.90;99.90;;;;;;5037592;28;20442;-39
2023/07/28 12:33:04;;;;;;;1.83;0.80;;;23.80;99.90;;;;;;5036981;28;20049;-34
2023/07/28 12:35:33;;;;;;;1.63;1.00;;;23.60;99.90;;;;;;5036904;28;20050;-37